Main page
METAR-TAF:

METAR-TAF

Airports :

Cranfield Airport

Cranfield, England

latitude: 52-04N, longitude: 000-37W, elevation: 111 m

Current weather observation

The report was made 5 hours and 13 minutes ago, at 17:50 UTC
Wind 10 kt from the East
Temperature 5°C
Humidity 100%
Pressure 1000 hPa
Visibility: 1800 m
Overcast at a height of 400 ft
Overcast at a height of 800 ft
mist

METAR: EGTC 211750Z 10010KT 1800 BR OVC004 OVC008 05/05 Q1000

Time: 23:03 (23:03 UTC)

Forecast

The report was made 5 hours and 43 minutes ago, at 17:20 UTC
Forecast valid from 21 at 17 UTC to 21 at 18 UTC
Wind 8 kt from the East/Southeast
Visibility: 2000 m
Broken clouds at a height of 400 ft
mist

TAF: EGTC 211720Z 2117/2118 11008KT 2000 BR BKN004

Weather observations and forecasts of more than 4000 airports (METAR and TAF reports).

The available stations are represented by yellow and red dots on the map.

Hover mouse over dot to see the name of the station.

Then click to see weather observations and forecasts.

To change the map : click on the green buttons with a black cross to zoom in, on the green button with a dash to zoom out, or on the green arrows for adjacent maps.


METAR-TAF: